Time;durP1;ratioP1;P1;durP2;ratioP2;P2;SDS_P1;SDS_P2;PMS_P1;PMS_P2;Temp;Humidity;BMP_temperature;BMP_pressure;BME280_temperature;BME280_humidity;BME280_pressure;Samples;Min_cycle;Max_cycle;Signal;HPM_P1;HPM_P2
2022/03/11 00:01:37;;;;;;;2.33;2.13;;;20.80;38.90;;;;;;5083821;27;43449;-59
2022/03/11 00:04:24;;;;;;;2.10;1.90;;;20.80;38.90;;;;;;5084989;28;43461;-59
2022/03/11 00:06:52;;;;;;;2.20;2.00;;;20.80;38.90;;;;;;5086348;27;43512;-59
2022/03/11 00:09:19;;;;;;;2.20;2.00;;;20.80;38.90;;;;;;5086226;27;43788;-59
2022/03/11 00:11:47;;;;;;;1.95;1.80;;;20.80;39.00;;;;;;5085870;27;43731;-59
2022/03/11 00:14:14;;;;;;;2.00;1.90;;;20.70;39.00;;;;;;5085582;28;44085;-59
2022/03/11 00:16:42;;;;;;;2.20;1.95;;;20.70;38.90;;;;;;5085574;27;43535;-60
2022/03/11 00:19:10;;;;;;;2.08;1.98;;;20.70;39.00;;;;;;5085427;27;44840;-59
2022/03/11 00:21:37;;;;;;;2.20;1.88;;;20.70;39.10;;;;;;5085750;27;43471;-60
2022/03/11 00:24:05;;;;;;;2.17;1.92;;;20.70;38.90;;;;;;5085754;27;43505;-60
2022/03/11 00:26:34;;;;;;;2.22;2.03;;;20.70;38.90;;;;;;5086061;27;43556;-60
2022/03/11 00:29:01;;;;;;;2.00;1.90;;;20.60;38.80;;;;;;5085566;27;44042;-59
2022/03/11 00:31:29;;;;;;;2.10;2.00;;;20.60;38.90;;;;;;5085263;27;43414;-60
2022/03/11 00:33:59;;;;;;;3.17;2.00;;;20.60;39.00;;;;;;5084590;28;43424;-60
2022/03/11 00:36:26;;;;;;;2.17;2.00;;;20.60;38.80;;;;;;5085879;28;43547;-60
2022/03/11 00:38:54;;;;;;;2.00;1.90;;;20.60;38.90;;;;;;5085414;27;44697;-60
2022/03/11 00:41:21;;;;;;;2.30;2.10;;;20.60;38.80;;;;;;5084019;27;43660;-60
2022/03/11 00:43:49;;;;;;;2.17;1.98;;;20.50;38.90;;;;;;5085074;27;43484;-59
2022/03/11 00:46:16;;;;;;;2.30;2.10;;;20.50;39.00;;;;;;5084067;28;43566;-60
2022/03/11 00:48:44;;;;;;;2.20;2.03;;;20.50;38.90;;;;;;5085281;27;44645;-59
2022/03/11 00:51:12;;;;;;;2.47;2.28;;;20.50;38.90;;;;;;5084790;27;44936;-59
2022/03/11 00:53:40;;;;;;;2.42;2.20;;;20.50;38.90;;;;;;5085098;27;43458;-59
2022/03/11 00:56:07;;;;;;;2.50;2.30;;;20.50;38.90;;;;;;5081498;27;43609;-59
2022/03/11 00:58:35;;;;;;;2.60;2.30;;;20.50;38.90;;;;;;5085591;27;44735;-59
2022/03/11 01:01:03;;;;;;;2.13;1.92;;;20.50;38.90;;;;;;5074879;27;43673;-60
2022/03/11 01:03:30;;;;;;;2.30;2.10;;;20.40;38.90;;;;;;5076198;27;43539;-59
2022/03/11 01:06:02;;;;;;;2.33;2.13;;;20.40;39.00;;;;;;5081973;27;43510;-60
2022/03/11 01:08:33;;;;;;;2.45;2.05;;;20.40;38.80;;;;;;5084746;27;44087;-59
2022/03/11 01:11:04;;;;;;;1.90;1.80;;;20.30;38.90;;;;;;5074614;27;43908;-59
2022/03/11 01:13:31;;;;;;;3.60;2.28;;;20.30;38.90;;;;;;5084766;28;43601;-60
2022/03/11 01:15:59;;;;;;;2.38;2.17;;;20.30;38.90;;;;;;5082367;27;43857;-59
2022/03/11 01:18:26;;;;;;;2.50;2.30;;;20.30;38.90;;;;;;5084513;27;43880;-60
2022/03/11 01:20:55;;;;;;;2.30;2.10;;;20.30;38.90;;;;;;5074485;28;43474;-59
2022/03/11 01:23:23;;;;;;;2.38;2.17;;;20.30;38.90;;;;;;5080088;27;43461;-60
2022/03/11 01:25:51;;;;;;;2.35;2.15;;;20.30;38.90;;;;;;5085114;27;43507;-59
2022/03/11 01:28:18;;;;;;;2.50;2.30;;;20.20;38.90;;;;;;5074890;27;44710;-59
2022/03/11 01:30:46;;;;;;;2.55;2.35;;;20.20;38.90;;;;;;5081618;28;44042;-60
2022/03/11 01:33:13;;;;;;;2.40;2.30;;;20.20;39.00;;;;;;5084945;27;43503;-59
2022/03/11 01:35:41;;;;;;;2.50;2.30;;;20.20;39.00;;;;;;5084697;27;43610;-60
2022/03/11 01:38:09;;;;;;;2.83;2.55;;;20.20;39.00;;;;;;5084390;27;44195;-59
2022/03/11 01:40:36;;;;;;;2.33;2.13;;;20.20;39.00;;;;;;5082048;28;43780;-60
2022/03/11 01:43:11;;;;;;;2.55;2.35;;;20.20;39.00;;;;;;5084411;27;43450;-60
2022/03/11 01:45:39;;;;;;;2.95;2.65;;;20.20;39.00;;;;;;5084693;27;43403;-60
2022/03/11 01:48:07;;;;;;;2.83;2.63;;;20.10;38.90;;;;;;5084460;27;44895;-60
2022/03/11 01:50:37;;;;;;;2.67;2.47;;;20.10;39.00;;;;;;5084513;28;43987;-60
2022/03/11 01:53:06;;;;;;;2.50;2.30;;;20.10;39.00;;;;;;5083697;28;43535;-59
2022/03/11 01:55:34;;;;;;;2.70;2.50;;;20.10;39.00;;;;;;5084050;27;43522;-59
2022/03/11 01:58:03;;;;;;;2.58;2.35;;;20.10;39.00;;;;;;5084261;27;43917;-60
2022/03/11 02:00:31;;;;;;;2.60;2.40;;;20.00;38.90;;;;;;5084416;27;43443;-59
2022/03/11 02:02:59;;;;;;;2.70;2.50;;;20.10;39.10;;;;;;5082610;27;43456;-60
2022/03/11 02:05:28;;;;;;;2.50;2.30;;;20.00;39.10;;;;;;5084489;28;43438;-59
2022/03/11 02:07:58;;;;;;;3.03;2.72;;;20.00;39.10;;;;;;5083866;27;44636;-59
2022/03/11 02:10:29;;;;;;;2.70;2.50;;;20.00;39.00;;;;;;5084201;27;43411;-59
2022/03/11 02:12:57;;;;;;;3.15;2.78;;;20.00;39.10;;;;;;5083670;28;43512;-59
2022/03/11 02:15:25;;;;;;;2.90;2.65;;;20.00;39.00;;;;;;5084194;27;43417;-60
2022/03/11 02:17:53;;;;;;;3.58;3.25;;;20.00;39.00;;;;;;5084142;27;44709;-59
2022/03/11 02:20:20;;;;;;;2.80;2.60;;;19.90;38.90;;;;;;5083690;28;43698;-59
2022/03/11 02:22:51;;;;;;;3.35;3.03;;;19.90;39.10;;;;;;5083256;27;43436;-60
2022/03/11 02:25:19;;;;;;;3.38;2.95;;;19.90;39.10;;;;;;5084083;27;43599;-60
2022/03/11 02:27:47;;;;;;;3.47;3.15;;;19.90;39.20;;;;;;5083121;28;43790;-59
2022/03/11 02:30:18;;;;;;;3.60;3.30;;;19.90;39.20;;;;;;5082660;28;43709;-60
2022/03/11 02:32:46;;;;;;;3.60;3.30;;;19.90;39.10;;;;;;5083712;28;43501;-59
2022/03/11 02:35:15;;;;;;;3.45;3.15;;;19.90;39.00;;;;;;5074996;27;43495;-60
2022/03/11 02:37:43;;;;;;;3.75;3.40;;;19.80;38.90;;;;;;5083963;27;44732;-61
2022/03/11 02:40:10;;;;;;;3.58;3.28;;;19.80;39.00;;;;;;5083284;28;43476;-60
2022/03/11 02:42:38;;;;;;;4.75;3.30;;;19.80;39.10;;;;;;5072335;28;43516;-60
2022/03/11 02:45:06;;;;;;;3.95;3.55;;;19.80;39.00;;;;;;5082712;28;43652;-59
2022/03/11 02:47:34;;;;;;;3.40;3.10;;;19.80;39.00;;;;;;5078378;28;43792;-59
2022/03/11 02:50:01;;;;;;;3.92;3.53;;;19.80;39.10;;;;;;5077835;28;43429;-60
2022/03/11 02:52:30;;;;;;;3.50;3.20;;;19.80;39.10;;;;;;5079924;28;43468;-60
2022/03/11 02:54:57;;;;;;;4.45;3.83;;;19.70;39.00;;;;;;5075922;28;44119;-60
2022/03/11 02:57:24;;;;;;;4.10;3.78;;;19.70;39.00;;;;;;5079256;27;43807;-60
2022/03/11 02:59:53;;;;;;;5.50;4.32;;;19.70;39.00;;;;;;5083509;27;43451;-60
2022/03/11 03:02:20;;;;;;;4.72;3.83;;;19.60;39.00;;;;;;5074239;27;43410;-60
2022/03/11 03:04:49;;;;;;;4.93;4.10;;;19.60;39.00;;;;;;5086228;28;44033;-60
2022/03/11 03:07:16;;;;;;;4.20;3.72;;;19.60;39.00;;;;;;5086721;27;43797;-59
2022/03/11 03:09:45;;;;;;;4.72;4.22;;;19.60;39.00;;;;;;5087231;27;44114;-60
2022/03/11 03:12:13;;;;;;;3.97;3.53;;;19.60;39.00;;;;;;5087133;27;43457;-60
2022/03/11 03:14:40;;;;;;;4.25;3.85;;;19.60;39.00;;;;;;5086859;27;43501;-60
2022/03/11 03:17:08;;;;;;;4.53;4.13;;;19.60;39.00;;;;;;5086774;27;44682;-59
2022/03/11 03:19:35;;;;;;;4.60;4.03;;;19.60;39.00;;;;;;5086763;27;44113;-60
2022/03/11 03:22:04;;;;;;;4.20;3.80;;;19.50;38.90;;;;;;5086626;28;43401;-59
2022/03/11 03:24:31;;;;;;;5.47;3.67;;;19.50;38.90;;;;;;5084363;28;43475;-59
2022/03/11 03:26:59;;;;;;;4.45;4.05;;;19.50;38.90;;;;;;5085364;28;43765;-59
2022/03/11 03:29:26;;;;;;;4.65;4.22;;;19.50;39.00;;;;;;5086885;28;43999;-60
2022/03/11 03:31:58;;;;;;;5.07;4.35;;;19.50;38.90;;;;;;5086068;27;43418;-60
2022/03/11 03:34:33;;;;;;;4.45;4.00;;;19.50;38.90;;;;;;5083913;28;43436;-60
2022/03/11 03:37:04;;;;;;;4.78;4.10;;;19.50;38.90;;;;;;5086543;28;43797;-59
2022/03/11 03:39:31;;;;;;;4.78;4.28;;;19.50;38.90;;;;;;5086626;27;43862;-59
2022/03/11 03:41:59;;;;;;;5.07;4.60;;;19.40;38.90;;;;;;5086344;27;43524;-60
2022/03/11 03:44:26;;;;;;;4.65;4.25;;;19.50;38.90;;;;;;5086135;27;44152;-60
2022/03/11 03:46:54;;;;;;;5.70;5.10;;;19.40;38.90;;;;;;5086459;27;44695;-59
2022/03/11 03:49:22;;;;;;;5.15;4.65;;;19.40;38.90;;;;;;5086509;27;44007;-60
2022/03/11 03:51:49;;;;;;;5.18;4.65;;;19.40;38.90;;;;;;5086072;27;43493;-60
2022/03/11 03:54:17;;;;;;;5.28;4.78;;;19.40;38.90;;;;;;5085764;28;43540;-60
2022/03/11 03:56:46;;;;;;;5.40;4.78;;;19.30;38.80;;;;;;5086047;27;43966;-60
2022/03/11 03:59:15;;;;;;;5.10;4.60;;;19.40;38.90;;;;;;5086400;27;44034;-60
2022/03/11 04:01:43;;;;;;;5.50;4.90;;;19.30;38.90;;;;;;5084339;28;43463;-59
2022/03/11 04:04:12;;;;;;;5.13;4.50;;;19.30;38.80;;;;;;5086277;27;43554;-59
2022/03/11 04:06:43;;;;;;;5.45;4.80;;;19.30;38.90;;;;;;5085914;27;43784;-60
2022/03/11 04:09:12;;;;;;;6.18;5.00;;;19.30;38.80;;;;;;5085861;27;43978;-60
2022/03/11 04:11:42;;;;;;;6.00;5.20;;;19.30;38.80;;;;;;5085986;27;43491;-59
2022/03/11 04:14:11;;;;;;;5.88;4.75;;;19.30;38.80;;;;;;5081712;27;43492;-59
2022/03/11 04:16:38;;;;;;;5.05;4.55;;;19.30;38.80;;;;;;5086144;27;44065;-60
2022/03/11 04:19:06;;;;;;;5.35;4.85;;;19.30;38.80;;;;;;5085674;28;43976;-60
2022/03/11 04:21:34;;;;;;;5.05;4.55;;;19.30;38.80;;;;;;5086318;28;43578;-59
2022/03/11 04:24:02;;;;;;;6.03;5.10;;;19.20;38.80;;;;;;5085902;27;43543;-60
2022/03/11 04:26:30;;;;;;;6.00;5.10;;;19.20;38.80;;;;;;5082767;28;45797;-59
2022/03/11 04:28:57;;;;;;;5.60;5.10;;;19.20;38.80;;;;;;5085280;27;44182;-60
2022/03/11 04:31:25;;;;;;;5.25;4.75;;;19.20;38.80;;;;;;5084541;27;43448;-59
2022/03/11 04:33:55;;;;;;;6.38;5.30;;;19.20;38.90;;;;;;5072954;27;43497;-59
2022/03/11 04:36:23;;;;;;;5.28;4.78;;;19.10;38.70;;;;;;5075202;28;44691;-59
2022/03/11 04:38:50;;;;;;;5.38;4.88;;;19.10;38.70;;;;;;5083705;27;44316;-60
2022/03/11 04:41:18;;;;;;;5.72;5.10;;;19.10;38.70;;;;;;5085611;27;44103;-59
2022/03/11 04:43:45;;;;;;;5.70;5.20;;;19.10;38.90;;;;;;5064228;28;43445;-59
2022/03/11 04:46:12;;;;;;;5.18;4.78;;;19.10;38.80;;;;;;5081130;28;44057;-59
2022/03/11 04:48:43;;;;;;;5.57;5.05;;;19.10;38.70;;;;;;5082217;28;43968;-59
2022/03/11 04:51:11;;;;;;;6.95;5.10;;;19.10;38.80;;;;;;5085640;27;43540;-59
2022/03/11 04:53:38;;;;;;;5.63;5.13;;;19.10;38.70;;;;;;5075286;27;43652;-60
2022/03/11 04:56:05;;;;;;;5.63;5.13;;;19.00;38.90;;;;;;5080611;28;44962;-59
2022/03/11 04:58:33;;;;;;;5.70;5.07;;;19.00;38.90;;;;;;5085215;27;43481;-60
2022/03/11 05:01:00;;;;;;;6.07;5.45;;;19.00;38.90;;;;;;5083419;28;43937;-60
2022/03/11 05:03:34;;;;;;;5.70;5.20;;;19.00;38.90;;;;;;5085477;27;43559;-60
2022/03/11 05:06:01;;;;;;;5.20;4.80;;;19.00;38.70;;;;;;5085069;27;43827;-59
2022/03/11 05:08:29;;;;;;;5.53;5.00;;;19.00;38.80;;;;;;5084908;27;43407;-59
2022/03/11 05:10:56;;;;;;;5.78;5.00;;;19.00;38.70;;;;;;5074792;27;44080;-59
2022/03/11 05:13:27;;;;;;;5.10;4.70;;;19.00;38.70;;;;;;5084630;28;43495;-59
2022/03/11 05:15:55;;;;;;;4.93;4.43;;;19.00;38.70;;;;;;5084932;27;43829;-59
2022/03/11 05:18:22;;;;;;;5.60;5.10;;;18.90;39.00;;;;;;5084768;28;43715;-60
2022/03/11 05:20:50;;;;;;;5.43;4.93;;;18.90;38.90;;;;;;5084797;28;43462;-59
2022/03/11 05:23:17;;;;;;;5.95;5.35;;;18.90;38.90;;;;;;5084597;27;43446;-60
2022/03/11 05:25:45;;;;;;;5.18;4.78;;;18.90;38.80;;;;;;5083903;27;44084;-59
2022/03/11 05:28:13;;;;;;;5.43;4.93;;;18.90;38.70;;;;;;5084837;27;43450;-60
2022/03/11 05:30:41;;;;;;;6.00;5.40;;;18.90;38.60;;;;;;5080695;28;43450;-60
2022/03/11 05:33:15;;;;;;;5.82;5.32;;;18.90;38.70;;;;;;5082268;28;43549;-60
2022/03/11 05:35:42;;;;;;;5.40;4.88;;;18.90;38.60;;;;;;5084544;28;43811;-59
2022/03/11 05:38:10;;;;;;;5.50;4.90;;;18.80;38.60;;;;;;5084584;27;43703;-59
2022/03/11 05:40:37;;;;;;;5.85;5.30;;;18.80;38.80;;;;;;5084842;27;43550;-61
2022/03/11 05:43:05;;;;;;;5.32;4.82;;;18.80;38.80;;;;;;5084417;27;43441;-59
2022/03/11 05:45:32;;;;;;;5.80;5.20;;;18.80;38.80;;;;;;5084534;27;44946;-60
2022/03/11 05:48:00;;;;;;;5.68;5.15;;;18.80;38.90;;;;;;5084640;27;44179;-60
2022/03/11 05:50:27;;;;;;;5.40;4.90;;;18.80;38.90;;;;;;5084865;27;43485;-59
2022/03/11 05:52:55;;;;;;;5.53;5.03;;;18.80;38.90;;;;;;5084216;27;43612;-59
2022/03/11 05:55:23;;;;;;;6.22;5.63;;;18.80;38.90;;;;;;5083791;27;43726;-60
2022/03/11 05:57:50;;;;;;;5.70;5.20;;;18.80;38.90;;;;;;5083561;27;43694;-59
2022/03/11 06:00:19;;;;;;;5.88;5.38;;;18.80;39.00;;;;;;5076869;27;43612;-60
2022/03/11 06:02:46;;;;;;;5.60;5.10;;;18.70;38.90;;;;;;5080909;28;43570;-60
2022/03/11 06:05:14;;;;;;;5.38;4.88;;;18.70;39.00;;;;;;5072454;28;43970;-62
2022/03/11 06:07:42;;;;;;;5.10;4.60;;;18.70;38.90;;;;;;5083858;27;43471;-59
2022/03/11 06:10:10;;;;;;;5.63;5.13;;;18.70;39.10;;;;;;5077727;27;43585;-60
2022/03/11 06:12:38;;;;;;;5.72;5.22;;;18.70;39.00;;;;;;5082342;28;43455;-60
2022/03/11 06:15:08;;;;;;;5.70;5.20;;;18.70;39.00;;;;;;5073632;27;43863;-59
2022/03/11 06:17:36;;;;;;;5.57;5.07;;;18.70;39.00;;;;;;5075831;27;43479;-60
2022/03/11 06:20:05;;;;;;;5.45;4.95;;;18.70;39.10;;;;;;5083899;27;43457;-59
2022/03/11 06:22:32;;;;;;;6.10;5.50;;;18.80;39.10;;;;;;5076832;27;43524;-59
2022/03/11 06:25:00;;;;;;;5.82;5.22;;;18.70;39.00;;;;;;5070639;28;43809;-60
2022/03/11 06:27:28;;;;;;;6.18;5.30;;;18.70;39.00;;;;;;5083953;27;44020;-59
2022/03/11 06:29:55;;;;;;;5.50;5.00;;;18.70;39.10;;;;;;5083980;28;43505;-60
2022/03/11 06:32:23;;;;;;;6.00;5.20;;;18.80;39.20;;;;;;5082350;27;43549;-59
2022/03/11 06:34:50;;;;;;;5.38;4.88;;;18.70;39.10;;;;;;5083746;27;43812;-60
2022/03/11 06:37:18;;;;;;;5.60;5.10;;;18.70;39.10;;;;;;5083304;27;43643;-60
2022/03/11 06:39:45;;;;;;;5.47;4.97;;;18.70;39.10;;;;;;5083824;27;43552;-60
2022/03/11 06:42:13;;;;;;;5.50;5.00;;;18.70;39.20;;;;;;5082976;28;43537;-60
2022/03/11 06:44:41;;;;;;;5.60;5.10;;;18.80;39.20;;;;;;5083284;27;44714;-60
2022/03/11 06:47:09;;;;;;;5.88;5.38;;;18.80;39.20;;;;;;5083624;27;43702;-59
2022/03/11 06:49:41;;;;;;;5.55;5.05;;;18.80;39.30;;;;;;5081958;28;43441;-59
2022/03/11 06:52:10;;;;;;;5.75;5.25;;;18.80;39.20;;;;;;5083705;28;43439;-60
2022/03/11 06:54:37;;;;;;;5.35;4.85;;;18.80;39.20;;;;;;5082886;27;43896;-61
2022/03/11 06:57:05;;;;;;;5.80;5.30;;;18.90;39.30;;;;;;5083453;28;44058;-60
2022/03/11 06:59:38;;;;;;;5.70;5.20;;;18.90;39.30;;;;;;5080815;28;43478;-60
2022/03/11 07:02:05;;;;;;;5.60;5.10;;;18.90;39.30;;;;;;5075058;28;43500;-59
2022/03/11 07:04:34;;;;;;;5.22;4.80;;;18.90;39.30;;;;;;5082366;28;45121;-60
2022/03/11 07:07:02;;;;;;;6.05;5.45;;;18.90;39.20;;;;;;5082860;27;44011;-60
2022/03/11 07:09:29;;;;;;;5.78;5.18;;;18.90;39.10;;;;;;5083659;27;43497;-61
2022/03/11 07:12:00;;;;;;;5.72;5.13;;;18.90;39.10;;;;;;5083617;27;43523;-60
2022/03/11 07:14:29;;;;;;;5.60;5.07;;;18.90;39.20;;;;;;5082641;27;44033;-60
2022/03/11 07:16:57;;;;;;;5.60;5.10;;;18.90;39.20;;;;;;5083375;27;43979;-59
2022/03/11 07:19:28;;;;;;;5.40;4.90;;;19.00;39.30;;;;;;5083037;27;43426;-60
2022/03/11 07:21:57;;;;;;;5.20;4.70;;;19.00;39.20;;;;;;5083405;27;43545;-60
2022/03/11 07:24:25;;;;;;;5.18;4.68;;;19.00;39.00;;;;;;5082192;28;44314;-60
2022/03/11 07:26:54;;;;;;;5.60;5.10;;;19.00;39.10;;;;;;5080473;27;43951;-59
2022/03/11 07:29:21;;;;;;;5.75;5.22;;;19.00;39.00;;;;;;5076978;28;43347;-60
2022/03/11 07:31:49;;;;;;;5.75;5.20;;;19.10;39.20;;;;;;5079655;28;43569;-59
2022/03/11 07:34:17;;;;;;;5.35;4.85;;;19.10;39.20;;;;;;5081276;28;45739;-59
2022/03/11 07:36:45;;;;;;;5.07;4.60;;;19.10;39.00;;;;;;5080407;27;43475;-60
2022/03/11 07:39:12;;;;;;;5.93;5.25;;;19.10;39.10;;;;;;5075886;28;43473;-59
2022/03/11 07:41:39;;;;;;;5.32;4.82;;;19.10;38.80;;;;;;5077056;28;43458;-60
2022/03/11 07:44:08;;;;;;;5.57;4.97;;;19.10;39.00;;;;;;5082630;27;43808;-59
2022/03/11 07:46:42;;;;;;;5.40;4.90;;;19.10;39.00;;;;;;5072784;27;43541;-60
2022/03/11 07:49:10;;;;;;;5.40;4.95;;;19.20;38.80;;;;;;5082581;27;43503;-60
2022/03/11 07:51:38;;;;;;;5.55;5.05;;;19.20;38.80;;;;;;5081457;27;43627;-60
2022/03/11 07:54:06;;;;;;;5.38;4.95;;;19.20;38.80;;;;;;5081162;27;44664;-58
2022/03/11 07:56:33;;;;;;;5.88;5.38;;;19.20;39.00;;;;;;5085324;27;43955;-59
2022/03/11 07:59:02;;;;;;;7.07;5.90;;;19.20;39.00;;;;;;5084475;27;43489;-60
2022/03/11 08:01:29;;;;;;;5.82;5.30;;;19.30;38.80;;;;;;5086159;27;43613;-59
2022/03/11 08:03:57;;;;;;;6.25;5.65;;;19.30;38.80;;;;;;5083134;27;44732;-60
2022/03/11 08:06:24;;;;;;;5.97;5.38;;;19.40;38.90;;;;;;5076048;27;43920;-59
2022/03/11 08:08:58;;;;;;;6.28;5.68;;;19.40;38.90;;;;;;5082227;27;43473;-60
2022/03/11 08:11:25;;;;;;;6.28;5.75;;;19.50;38.90;;;;;;5085478;27;43518;-60
2022/03/11 08:13:53;;;;;;;5.97;5.47;;;19.50;38.90;;;;;;5083250;27;45119;-60
2022/03/11 08:16:20;;;;;;;5.82;5.30;;;19.60;38.80;;;;;;5088808;27;43488;-59
2022/03/11 08:18:48;;;;;;;6.47;5.70;;;19.60;38.60;;;;;;5085090;27;43530;-59
2022/03/11 08:21:18;;;;;;;6.25;5.50;;;19.80;38.50;;;;;;5087846;27;43462;-59
2022/03/11 08:23:46;;;;;;;7.40;5.17;;;19.90;38.60;;;;;;5083916;27;45081;-59
2022/03/11 08:26:13;;;;;;;6.00;5.20;;;20.00;38.40;;;;;;5084660;27;43490;-59
2022/03/11 08:28:45;;;;;;;7.80;5.50;;;20.10;38.40;;;;;;5085313;27;43431;-60
2022/03/11 08:31:33;;;;;;;5.45;4.95;;;20.30;38.30;;;;;;5083377;27;43462;-60
2022/03/11 08:34:01;;;;;;;5.93;5.25;;;20.40;38.10;;;;;;5084143;27;44942;-59
2022/03/11 08:36:29;;;;;;;5.80;5.20;;;20.60;38.00;;;;;;5084596;27;43537;-59
2022/03/11 08:38:56;;;;;;;6.63;5.40;;;20.70;37.60;;;;;;5092019;27;43605;-59
2022/03/11 08:41:26;;;;;;;6.10;5.25;;;20.80;37.70;;;;;;5084892;27;43464;-60
2022/03/11 08:43:54;;;;;;;6.28;4.97;;;20.90;37.50;;;;;;5083536;27;44639;-59
2022/03/11 08:46:21;;;;;;;5.57;5.07;;;21.00;37.40;;;;;;5084266;27;43545;-59
2022/03/11 08:48:50;;;;;;;5.72;5.22;;;21.10;37.40;;;;;;5085063;27;43503;-60
2022/03/11 08:51:18;;;;;;;8.07;5.32;;;21.20;37.50;;;;;;5084647;27;43572;-60
2022/03/11 08:53:45;;;;;;;6.03;5.10;;;21.20;37.50;;;;;;5082934;27;43829;-60
2022/03/11 08:56:15;;;;;;;6.38;5.50;;;21.30;37.50;;;;;;5073649;27;43597;-62
2022/03/11 08:58:45;;;;;;;6.68;5.88;;;21.40;37.50;;;;;;5085091;27;43494;-59
2022/03/11 09:01:20;;;;;;;5.35;4.85;;;21.40;37.60;;;;;;5081702;27;43553;-60
2022/03/11 09:03:47;;;;;;;5.60;5.05;;;21.50;37.60;;;;;;5080364;27;43845;-61
2022/03/11 09:06:15;;;;;;;5.50;4.63;;;21.50;37.60;;;;;;5079843;27;43978;-59
2022/03/11 09:08:46;;;;;;;5.77;5.13;;;21.50;37.60;;;;;;5083860;27;43958;-58
2022/03/11 09:11:14;;;;;;;6.40;4.95;;;21.60;37.60;;;;;;5080810;27;43549;-58
2022/03/11 09:13:47;;;;;;;5.50;5.00;;;21.70;37.60;;;;;;5077256;27;43561;-60
2022/03/11 09:16:15;;;;;;;5.30;4.80;;;21.70;37.60;;;;;;5083878;27;43570;-60
2022/03/11 09:18:42;;;;;;;5.18;4.68;;;21.80;37.60;;;;;;5083911;27;43438;-63
2022/03/11 09:21:10;;;;;;;5.80;4.97;;;21.80;37.60;;;;;;5083991;27;44080;-59
2022/03/11 09:23:39;;;;;;;5.32;4.70;;;21.90;37.40;;;;;;5083243;27;44983;-59
2022/03/11 09:26:06;;;;;;;5.18;4.78;;;22.00;37.50;;;;;;5083434;27;44082;-60
2022/03/11 09:28:34;;;;;;;5.40;4.90;;;22.00;37.30;;;;;;5083666;27;43445;-60
2022/03/11 09:31:08;;;;;;;5.57;5.07;;;22.10;37.40;;;;;;5083351;27;43599;-60
2022/03/11 09:33:39;;;;;;;10.85;5.10;;;22.10;37.40;;;;;;5082506;27;43899;-59
2022/03/11 09:36:07;;;;;;;;;;;22.20;37.40;;;;;;5075417;27;43564;-60
2022/03/11 09:38:36;;;;;;;5.47;4.93;;;22.20;37.10;;;;;;5083406;27;43520;-59
2022/03/11 09:41:05;;;;;;;6.22;5.63;;;22.30;37.30;;;;;;5083902;27;43581;-61
2022/03/11 09:43:35;;;;;;;6.55;5.28;;;22.30;37.10;;;;;;5080706;27;44896;-60
2022/03/11 09:46:03;;;;;;;7.60;5.68;;;22.40;37.10;;;;;;5086963;27;43497;-61
2022/03/11 09:48:32;;;;;;;6.05;5.25;;;22.40;36.60;;;;;;5094878;27;43460;-60
2022/03/11 09:51:00;;;;;;;5.85;4.97;;;22.50;36.70;;;;;;5077617;27;43479;-60
2022/03/11 09:53:35;;;;;;;8.90;5.25;;;22.50;36.60;;;;;;5082352;27;44002;-61
2022/03/11 09:56:03;;;;;;;5.55;4.93;;;22.50;36.60;;;;;;5082355;27;43967;-61
2022/03/11 09:58:31;;;;;;;5.57;4.78;;;22.60;36.70;;;;;;5084014;27;43542;-61
2022/03/11 10:00:58;;;;;;;5.18;4.72;;;22.70;36.50;;;;;;5083223;27;43589;-61
2022/03/11 10:03:29;;;;;;;6.05;5.30;;;22.80;36.40;;;;;;5082037;27;43979;-62
2022/03/11 10:05:57;;;;;;;5.28;4.85;;;22.90;36.40;;;;;;5081114;27;43734;-61
2022/03/11 10:08:31;;;;;;;6.38;5.78;;;23.00;36.40;;;;;;5079326;27;44117;-61
2022/03/11 10:11:24;;;;;;;6.40;5.38;;;23.10;35.80;;;;;;5083392;27;43446;-61
2022/03/11 10:14:04;;;;;;;6.90;5.75;;;23.10;35.30;;;;;;5081140;27;44879;-62
2022/03/11 10:16:32;;;;;;;7.18;5.57;;;23.20;35.20;;;;;;5080603;27;43521;-60
2022/03/11 10:19:08;;;;;;;6.78;6.00;;;23.20;35.50;;;;;;5082887;27;43486;-62
2022/03/11 10:21:45;;;;;;;6.10;5.50;;;23.20;34.90;;;;;;5082122;27;43547;-61
2022/03/11 10:24:20;;;;;;;6.18;5.57;;;23.30;35.20;;;;;;5082507;27;43771;-61
2022/03/11 10:26:51;;;;;;;5.53;5.03;;;23.40;35.40;;;;;;5083341;27;43670;-61
2022/03/11 10:29:23;;;;;;;5.28;4.78;;;23.40;35.50;;;;;;5082707;27;43430;-61
2022/03/11 10:31:54;;;;;;;5.75;5.20;;;23.50;35.60;;;;;;5082391;27;43382;-61
2022/03/11 10:34:25;;;;;;;6.72;5.25;;;23.50;35.40;;;;;;5082817;27;43891;-61
2022/03/11 10:37:06;;;;;;;6.38;5.03;;;23.60;35.50;;;;;;5078658;27;43526;-62
2022/03/11 10:39:41;;;;;;;5.05;4.65;;;23.70;35.50;;;;;;5074632;27;43423;-61
2022/03/11 10:42:23;;;;;;;6.03;5.15;;;23.70;35.60;;;;;;5090327;27;44080;-60
2022/03/11 10:45:00;;;;;;;6.22;5.05;;;23.80;35.60;;;;;;5081220;27;44658;-61
2022/03/11 10:47:36;;;;;;;5.70;5.10;;;23.80;35.50;;;;;;5079063;27;43540;-60
2022/03/11 10:50:08;;;;;;;4.85;4.45;;;23.80;35.40;;;;;;5082886;27;43493;-62
2022/03/11 10:52:47;;;;;;;7.18;5.18;;;23.90;35.40;;;;;;5082565;27;43526;-61
2022/03/11 10:55:23;;;;;;;5.68;5.18;;;23.90;35.30;;;;;;5078392;27;43795;-61
2022/03/11 10:57:58;;;;;;;5.55;5.05;;;23.90;35.10;;;;;;5082025;27;43465;-61
2022/03/11 11:00:28;;;;;;;6.10;5.47;;;23.90;35.10;;;;;;5081817;27;43393;-62
2022/03/11 11:03:02;;;;;;;5.57;5.07;;;23.80;35.10;;;;;;5082289;27;43561;-60
2022/03/11 11:05:32;;;;;;;6.85;4.88;;;23.90;35.10;;;;;;5078176;27;43906;-61
2022/03/11 11:08:03;;;;;;;5.13;4.68;;;23.90;35.10;;;;;;5078861;27;43371;-61
2022/03/11 11:10:33;;;;;;;4.82;4.40;;;23.90;35.20;;;;;;5080071;27;43475;-61
2022/03/11 11:13:01;;;;;;;5.28;4.78;;;23.90;35.20;;;;;;5081158;27;43638;-61
2022/03/11 11:15:29;;;;;;;5.40;4.90;;;23.90;35.30;;;;;;5077044;27;44061;-60
2022/03/11 11:18:08;;;;;;;5.00;4.47;;;23.90;35.30;;;;;;5082198;27;43496;-60
2022/03/11 11:20:46;;;;;;;4.88;4.45;;;23.90;35.30;;;;;;5081602;27;43444;-60
2022/03/11 11:23:16;;;;;;;7.00;5.53;;;23.90;35.10;;;;;;5062491;27;43521;-61
2022/03/11 11:25:44;;;;;;;6.40;5.07;;;23.90;34.80;;;;;;5083407;27;44485;-60
2022/03/11 11:28:18;;;;;;;5.30;4.78;;;23.90;35.10;;;;;;5085150;27;43489;-60
2022/03/11 11:30:47;;;;;;;5.72;4.85;;;23.90;35.10;;;;;;5097565;27;43494;-61
2022/03/11 11:33:15;;;;;;;5.30;4.80;;;24.00;35.20;;;;;;5085612;27;43504;-60
2022/03/11 11:35:44;;;;;;;5.57;4.90;;;24.00;35.20;;;;;;5084501;27;43773;-61
2022/03/11 11:38:27;;;;;;;6.43;4.95;;;24.00;35.20;;;;;;5085061;27;43968;-61
2022/03/11 11:40:58;;;;;;;5.38;4.82;;;24.00;35.00;;;;;;5083933;27;43533;-61
2022/03/11 11:43:28;;;;;;;5.78;5.10;;;24.00;34.90;;;;;;5083193;27;43494;-61
2022/03/11 11:46:04;;;;;;;5.72;5.22;;;24.00;35.70;;;;;;5082856;27;43758;-61
2022/03/11 11:48:32;;;;;;;5.75;4.85;;;24.00;34.90;;;;;;5084440;27;43598;-61
2022/03/11 11:51:00;;;;;;;5.53;5.03;;;24.00;35.10;;;;;;5086875;27;43509;-61
2022/03/11 11:53:43;;;;;;;6.07;5.32;;;24.00;34.70;;;;;;5085373;27;43477;-61
2022/03/11 11:56:44;;;;;;;5.95;5.35;;;23.90;34.60;;;;;;5083893;27;44604;-61
2022/03/11 11:59:19;;;;;;;5.85;5.28;;;23.90;34.70;;;;;;5084624;27;43645;-61
2022/03/11 12:01:49;;;;;;;5.30;4.80;;;24.00;34.80;;;;;;5084031;27;43499;-61
2022/03/11 12:04:19;;;;;;;6.05;5.30;;;23.90;34.70;;;;;;5084429;27;43715;-61
2022/03/11 12:06:57;;;;;;;5.15;4.65;;;23.90;34.90;;;;;;5082717;27;45125;-61
2022/03/11 12:12:43;;;;;;;4.75;4.35;;;24.00;35.10;;;;;;5079420;27;43497;-61
2022/03/11 12:15:15;;;;;;;5.20;4.70;;;24.00;35.10;;;;;;5079911;27;43482;-61
2022/03/11 12:17:45;;;;;;;4.90;4.50;;;24.00;35.10;;;;;;5084525;27;45055;-61
2022/03/11 12:20:39;;;;;;;5.65;5.15;;;24.00;35.50;;;;;;5083813;27;43856;-60
2022/03/11 12:23:14;;;;;;;4.88;4.47;;;24.00;34.70;;;;;;5104038;27;43477;-61
2022/03/11 12:25:59;;;;;;;4.80;4.40;;;24.00;35.00;;;;;;5083268;27;43407;-61
2022/03/11 12:28:30;;;;;;;5.57;5.07;;;24.10;35.00;;;;;;5079247;27;44700;-60
2022/03/11 12:31:06;;;;;;;7.25;4.70;;;24.10;34.70;;;;;;5084537;27;43641;-60
2022/03/11 12:33:41;;;;;;;5.05;4.55;;;24.10;34.90;;;;;;5083322;27;43437;-61
2022/03/11 12:36:17;;;;;;;5.07;4.57;;;24.00;34.60;;;;;;5081902;27;43448;-61
2022/03/11 12:38:46;;;;;;;4.82;4.43;;;24.00;34.70;;;;;;5083197;27;44039;-61
2022/03/11 12:41:25;;;;;;;5.43;4.88;;;24.00;34.90;;;;;;5083119;27;43502;-60
2022/03/11 12:43:53;;;;;;;5.40;4.90;;;24.10;34.50;;;;;;5083526;27;43518;-60
2022/03/11 12:46:21;;;;;;;4.97;4.53;;;24.00;34.40;;;;;;5084037;27;43458;-61
2022/03/11 12:48:48;;;;;;;5.32;4.57;;;24.00;34.40;;;;;;5084648;27;43846;-61
2022/03/11 12:51:18;;;;;;;4.95;4.53;;;24.00;34.40;;;;;;5084810;27;43557;-60
2022/03/11 12:53:49;;;;;;;5.53;4.90;;;24.00;34.30;;;;;;5077162;27;43519;-60
2022/03/11 12:56:18;;;;;;;5.13;4.63;;;24.00;34.40;;;;;;5083949;27;43468;-60
2022/03/11 12:58:47;;;;;;;6.53;5.03;;;24.00;34.40;;;;;;5076096;27;44765;-60
2022/03/11 13:01:15;;;;;;;4.85;4.45;;;24.00;34.50;;;;;;5081485;27;43521;-61
2022/03/11 13:03:50;;;;;;;5.13;4.40;;;24.00;34.40;;;;;;5083296;27;43471;-60